Time;durP1;ratioP1;P1;durP2;ratioP2;P2;SDS_P1;SDS_P2;PMS_P1;PMS_P2;Temp;Humidity;BMP_temperature;BMP_pressure;BME280_temperature;BME280_humidity;BME280_pressure;Samples;Min_cycle;Max_cycle;Signal;HPM_P1;HPM_P2
2021/07/13 00:02:14;;;;;;;12.95;7.03;;;;;;;23.85;100.00;100405.88;4992377;28;20073;-75
2021/07/13 00:04:43;;;;;;;7.22;6.53;;;;;;;23.88;100.00;100408.53;4991277;28;20026;-75
2021/07/13 00:07:08;;;;;;;7.68;6.88;;;;;;;23.87;100.00;100409.72;4999339;28;20028;-75
2021/07/13 00:09:34;;;;;;;7.20;6.35;;;;;;;23.89;100.00;100406.53;5004447;28;20536;-75
2021/07/13 00:11:59;;;;;;;8.52;7.05;;;;;;;23.90;100.00;100410.81;5009608;28;20031;-75
2021/07/13 00:14:25;;;;;;;8.68;7.65;;;;;;;23.89;100.00;100418.31;4976168;28;20030;-75
2021/07/13 00:16:50;;;;;;;8.15;6.25;;;;;;;23.80;100.00;100417.50;5003948;28;20556;-75
2021/07/13 00:19:16;;;;;;;10.20;7.72;;;;;;;23.82;100.00;100412.31;5007593;28;20025;-74
2021/07/13 00:21:41;;;;;;;7.95;6.65;;;;;;;23.92;100.00;100413.88;4990949;28;20065;-75
2021/07/13 00:24:08;;;;;;;10.65;7.22;;;;;;;23.90;100.00;100411.59;4991277;28;20113;-75
2021/07/13 00:26:34;;;;;;;7.72;6.60;;;;;;;23.82;100.00;100407.56;4992589;28;20045;-75
2021/07/13 00:29:00;;;;;;;11.02;6.50;;;;;;;23.83;100.00;100420.09;4989957;28;20425;-75
2021/07/13 00:31:25;;;;;;;10.75;7.60;;;;;;;23.79;100.00;100413.97;4990909;28;20117;-75
2021/07/13 00:33:50;;;;;;;12.52;7.30;;;;;;;23.86;100.00;100410.97;5006140;28;20402;-75
2021/07/13 00:36:16;;;;;;;10.75;7.13;;;;;;;23.91;100.00;100415.09;4990824;28;20038;-75
2021/07/13 00:38:41;;;;;;;10.13;7.50;;;;;;;23.95;100.00;100411.00;4989995;28;20034;-75
2021/07/13 00:41:07;;;;;;;10.93;7.22;;;;;;;23.86;100.00;100410.19;4989541;28;20475;-75
2021/07/13 00:43:32;;;;;;;11.77;7.50;;;;;;;23.89;100.00;100415.56;4990197;28;20544;-75
2021/07/13 00:45:58;;;;;;;11.65;8.13;;;;;;;23.89;100.00;100412.03;4990642;28;20038;-75
2021/07/13 00:48:24;;;;;;;10.43;7.60;;;;;;;23.78;100.00;100406.94;4990870;28;20027;-75
2021/07/13 00:50:51;;;;;;;8.90;7.55;;;;;;;23.81;100.00;100414.28;4991548;28;20038;-75
2021/07/13 00:53:20;;;;;;;10.25;7.43;;;;;;;23.76;100.00;100414.09;4990322;28;20038;-75
2021/07/13 00:55:45;;;;;;;11.45;7.45;;;;;;;23.73;100.00;100415.00;4989253;28;20506;-75
2021/07/13 00:58:10;;;;;;;9.65;8.30;;;;;;;23.70;100.00;100410.41;4987942;28;20038;-75
2021/07/13 01:00:36;;;;;;;10.43;8.00;;;;;;;23.64;100.00;100412.97;4990033;28;20038;-75
2021/07/13 01:03:04;;;;;;;9.75;7.00;;;;;;;23.53;100.00;100418.09;4990084;28;20026;-75
2021/07/13 01:05:39;;;;;;;13.88;8.10;;;;;;;23.54;100.00;100399.63;4984988;28;20418;-75
2021/07/13 01:08:39;;;;;;;12.38;7.55;;;;;;;23.45;100.00;100407.78;4990545;28;20050;-76
2021/07/13 01:11:11;;;;;;;10.95;7.65;;;;;;;23.30;100.00;100408.31;4975096;28;20486;-76
2021/07/13 01:14:01;;;;;;;8.07;7.28;;;;;;;23.32;100.00;100404.34;4990164;28;20031;-76
2021/07/13 01:16:42;;;;;;;9.25;7.85;;;;;;;23.36;100.00;100403.03;4986107;28;20039;-76
2021/07/13 01:19:31;;;;;;;10.60;7.93;;;;;;;23.39;100.00;100401.34;4976988;28;20130;-76
2021/07/13 01:22:07;;;;;;;9.07;8.13;;;;;;;23.54;100.00;100402.38;4994824;28;20104;-76
2021/07/13 01:25:01;;;;;;;12.55;8.20;;;;;;;23.50;100.00;100404.50;4993607;28;20049;-76
2021/07/13 01:27:56;;;;;;;9.43;7.60;;;;;;;23.47;100.00;100394.38;4989080;28;20030;-76
2021/07/13 01:30:27;;;;;;;11.05;8.02;;;;;;;23.56;100.00;100389.69;4993414;28;20051;-76
2021/07/13 01:33:06;;;;;;;9.88;8.05;;;;;;;23.53;100.00;100389.81;4990385;28;20039;-76
2021/07/13 01:35:37;;;;;;;10.38;8.13;;;;;;;23.59;100.00;100385.28;4993720;28;20042;-76
2021/07/13 01:38:03;;;;;;;11.38;8.80;;;;;;;23.64;100.00;100376.44;5008892;28;20571;-76
2021/07/13 01:40:30;;;;;;;10.95;8.18;;;;;;;23.60;100.00;100373.06;4993816;28;20038;-76
2021/07/13 01:42:58;;;;;;;10.57;8.52;;;;;;;23.51;100.00;100378.50;4993893;28;20088;-76
2021/07/13 01:45:24;;;;;;;15.38;9.00;;;;;;;23.48;100.00;100369.16;4993336;28;20045;-76
2021/07/13 01:47:53;;;;;;;10.25;8.30;;;;;;;23.48;100.00;100369.16;4993815;28;20034;-76
2021/07/13 01:50:19;;;;;;;12.45;8.30;;;;;;;23.46;100.00;100365.34;4992420;28;20100;-76
2021/07/13 01:52:45;;;;;;;12.70;8.40;;;;;;;23.51;100.00;100359.25;4993087;28;20053;-76
2021/07/13 01:55:13;;;;;;;12.27;8.00;;;;;;;23.47;100.00;100355.88;4993086;28;20022;-76
2021/07/13 01:57:39;;;;;;;11.00;8.38;;;;;;;23.41;100.00;100355.69;4993993;28;20050;-76
2021/07/13 02:00:10;;;;;;;9.82;7.53;;;;;;;23.40;100.00;100347.91;4985031;28;20041;-76
2021/07/13 02:02:39;;;;;;;13.18;8.07;;;;;;;23.43;100.00;100352.50;4985008;28;20034;-76
2021/07/13 02:05:07;;;;;;;9.20;8.25;;;;;;;23.41;100.00;100344.69;4992801;28;20038;-76
2021/07/13 02:07:37;;;;;;;13.60;8.20;;;;;;;23.34;100.00;100353.22;4994134;28;20034;-76
2021/07/13 02:10:05;;;;;;;10.35;7.78;;;;;;;23.26;100.00;100344.44;4981933;28;20043;-76
2021/07/13 02:12:32;;;;;;;12.90;8.23;;;;;;;23.23;100.00;100345.31;4991451;28;20445;-76
2021/07/13 02:14:57;;;;;;;14.02;8.80;;;;;;;23.21;100.00;100345.00;4991631;28;20042;-76
2021/07/13 02:17:25;;;;;;;11.40;8.13;;;;;;;23.24;100.00;100349.63;4992541;28;20026;-76
2021/07/13 02:19:50;;;;;;;11.73;8.48;;;;;;;23.22;100.00;100354.78;4983696;28;20494;-76
2021/07/13 02:22:15;;;;;;;11.38;8.60;;;;;;;23.16;100.00;100351.09;4988114;28;20034;-76
2021/07/13 02:24:41;;;;;;;10.52;8.27;;;;;;;23.13;100.00;100359.47;4986020;28;20052;-76
2021/07/13 02:27:17;;;;;;;13.27;8.75;;;;;;;23.03;100.00;100355.88;4989903;28;20039;-76
2021/07/13 02:29:52;;;;;;;11.55;8.95;;;;;;;23.02;100.00;100356.31;4974889;28;20039;-76
2021/07/13 02:32:40;;;;;;;12.45;9.35;;;;;;;22.88;100.00;100357.56;4997603;28;20042;-76
2021/07/13 02:35:08;;;;;;;12.23;8.02;;;;;;;22.99;100.00;100355.25;5001012;28;20030;-76
2021/07/13 02:37:36;;;;;;;15.20;9.32;;;;;;;22.99;100.00;100348.97;4976169;28;20073;-76
2021/07/13 02:40:08;;;;;;;12.38;9.02;;;;;;;22.95;100.00;100349.09;4993575;28;20069;-76
2021/07/13 02:42:34;;;;;;;14.85;8.60;;;;;;;22.94;100.00;100357.75;4991569;28;20133;-76
2021/07/13 02:45:00;;;;;;;12.05;8.77;;;;;;;22.92;100.00;100355.47;4992987;28;20113;-76
2021/07/13 02:47:27;;;;;;;12.23;8.73;;;;;;;22.87;100.00;100347.03;4993300;28;20079;-76
2021/07/13 02:49:54;;;;;;;13.77;9.63;;;;;;;22.91;100.00;100348.44;4993435;28;20462;-76
2021/07/13 02:52:28;;;;;;;11.07;9.05;;;;;;;22.86;100.00;100342.78;4989876;28;20042;-76
2021/07/13 02:55:01;;;;;;;11.25;8.68;;;;;;;22.88;100.00;100340.34;4992143;28;20454;-77
2021/07/13 02:57:27;;;;;;;11.20;9.10;;;;;;;22.79;100.00;100343.78;4993552;28;20422;-76
2021/07/13 02:59:55;;;;;;;13.55;8.93;;;;;;;22.75;100.00;100337.63;4993315;28;20100;-76
2021/07/13 03:02:22;;;;;;;12.15;8.75;;;;;;;22.74;100.00;100336.13;4991203;28;20129;-76
2021/07/13 03:04:50;;;;;;;13.98;9.25;;;;;;;22.72;100.00;100338.53;4993090;28;20072;-76
2021/07/13 03:07:17;;;;;;;10.57;9.15;;;;;;;22.69;100.00;100333.13;4991766;28;20034;-76
2021/07/13 03:09:43;;;;;;;16.08;9.43;;;;;;;22.70;100.00;100340.97;4983669;28;20050;-76
2021/07/13 03:12:09;;;;;;;13.10;9.07;;;;;;;22.59;100.00;100350.78;4993004;28;20019;-76
2021/07/13 03:14:39;;;;;;;20.73;9.68;;;;;;;22.72;100.00;100349.53;4993143;28;20121;-76
2021/07/13 03:17:07;;;;;;;15.05;9.23;;;;;;;22.75;100.00;100347.84;4991651;28;20026;-76
2021/07/13 03:19:33;;;;;;;14.35;9.50;;;;;;;22.73;100.00;100355.75;4996646;28;20038;-76
2021/07/13 03:22:00;;;;;;;12.52;9.80;;;;;;;22.68;100.00;100354.38;4990084;28;20084;-76
2021/07/13 03:24:26;;;;;;;15.52;9.88;;;;;;;22.73;100.00;100356.53;4992762;28;20038;-76
2021/07/13 03:26:53;;;;;;;16.00;10.32;;;;;;;22.87;100.00;100355.28;4989702;28;20034;-76
2021/07/13 03:29:19;;;;;;;15.38;10.85;;;;;;;22.88;100.00;100354.06;4985827;28;20045;-76
2021/07/13 03:31:46;;;;;;;14.88;10.20;;;;;;;22.82;100.00;100359.34;4991751;28;20046;-76
2021/07/13 03:34:12;;;;;;;19.25;10.13;;;;;;;22.76;100.00;100354.88;4992222;28;20072;-76
2021/07/13 03:36:38;;;;;;;18.20;10.60;;;;;;;22.75;100.00;100348.63;4981151;28;20081;-76
2021/07/13 03:39:05;;;;;;;18.83;9.95;;;;;;;22.75;100.00;100354.09;4983928;28;20401;-76
2021/07/13 03:41:32;;;;;;;15.27;10.10;;;;;;;22.74;100.00;100360.06;4988273;28;20462;-76
2021/07/13 03:44:00;;;;;;;16.42;10.18;;;;;;;22.68;100.00;100364.56;4976984;28;20117;-76
2021/07/13 03:46:25;;;;;;;13.85;9.73;;;;;;;22.67;100.00;100361.06;4984806;28;20398;-76
2021/07/13 03:48:51;;;;;;;14.57;10.68;;;;;;;22.60;100.00;100366.78;4981370;28;20034;-76
2021/07/13 03:51:35;;;;;;;15.60;10.73;;;;;;;22.67;100.00;100358.31;4992690;28;20054;-76
2021/07/13 03:54:01;;;;;;;16.30;10.27;;;;;;;22.68;100.00;100362.59;4984026;28;20512;-77
2021/07/13 03:56:27;;;;;;;13.52;11.02;;;;;;;22.73;100.00;100345.53;4982339;28;20068;-76
2021/07/13 03:58:54;;;;;;;16.20;10.60;;;;;;;22.62;100.00;100347.91;4993696;28;20077;-76
2021/07/13 04:01:19;;;;;;;15.02;10.25;;;;;;;22.72;100.00;100349.53;4988530;28;20038;-76
2021/07/13 04:03:45;;;;;;;17.55;11.00;;;;;;;22.78;100.00;100352.47;4993105;28;20046;-76
2021/07/13 04:06:10;;;;;;;14.25;11.10;;;;;;;22.71;100.00;100360.94;4985896;28;20112;-76
2021/07/13 04:08:35;;;;;;;16.88;12.35;;;;;;;22.70;100.00;100365.69;4990041;28;20034;-75
2021/07/13 04:11:01;;;;;;;16.08;11.57;;;;;;;22.82;100.00;100362.09;4998520;28;20030;-76
2021/07/13 04:13:27;;;;;;;16.60;12.23;;;;;;;22.83;100.00;100360.91;4994695;28;20038;-76
2021/07/13 04:15:52;;;;;;;16.95;12.18;;;;;;;22.80;100.00;100361.78;5007014;28;20026;-76
2021/07/13 04:18:18;;;;;;;17.63;12.10;;;;;;;22.78;100.00;100358.72;4994984;28;20445;-76
2021/07/13 04:20:43;;;;;;;21.70;12.25;;;;;;;22.75;100.00;100362.34;4991656;28;20105;-75
2021/07/13 04:23:08;;;;;;;17.55;12.25;;;;;;;22.84;100.00;100362.41;4985718;28;20030;-76
2021/07/13 04:25:34;;;;;;;17.95;12.30;;;;;;;22.90;100.00;100363.38;4995109;28;20026;-76
2021/07/13 04:27:59;;;;;;;17.58;12.23;;;;;;;22.97;100.00;100359.63;4994196;28;20049;-76
2021/07/13 04:30:24;;;;;;;16.48;11.68;;;;;;;22.94;100.00;100369.53;4995099;28;20058;-76
2021/07/13 04:32:49;;;;;;;19.98;12.68;;;;;;;23.10;100.00;100363.88;4983554;28;20113;-76
2021/07/13 04:35:15;;;;;;;23.52;13.30;;;;;;;22.93;100.00;100359.00;4973423;28;20149;-76
2021/07/13 04:37:40;;;;;;;19.65;13.13;;;;;;;22.93;100.00;100367.22;4976626;28;20050;-76
2021/07/13 04:40:09;;;;;;;17.88;12.70;;;;;;;22.96;100.00;100360.84;4994412;28;20411;-76
2021/07/13 04:42:34;;;;;;;24.33;13.05;;;;;;;23.02;100.00;100365.31;4978620;28;20471;-76
2021/07/13 04:44:59;;;;;;;18.05;12.85;;;;;;;23.13;100.00;100370.44;4977703;28;20037;-76
2021/07/13 04:47:25;;;;;;;21.17;12.85;;;;;;;23.24;100.00;100368.09;4983703;28;20117;-76
2021/07/13 04:49:50;;;;;;;24.10;13.25;;;;;;;23.26;100.00;100369.19;4979348;28;20414;-76
2021/07/13 04:52:15;;;;;;;22.17;13.18;;;;;;;23.32;100.00;100366.66;4978417;28;20039;-76
2021/07/13 04:54:41;;;;;;;16.42;12.73;;;;;;;23.40;100.00;100375.41;4994360;28;20059;-76
2021/07/13 04:57:06;;;;;;;16.17;13.02;;;;;;;23.42;100.00;100361.97;4976868;28;20494;-76
2021/07/13 04:59:32;;;;;;;17.90;11.80;;;;;;;23.57;100.00;100371.22;4958850;28;20085;-76
2021/07/13 05:01:57;;;;;;;19.85;12.05;;;;;;;23.56;100.00;100369.66;4982329;28;20125;-75
2021/07/13 05:04:22;;;;;;;19.60;12.20;;;;;;;23.50;100.00;100374.97;4990219;28;20033;-75
2021/07/13 05:06:47;;;;;;;15.88;11.95;;;;;;;23.54;100.00;100374.88;4996049;28;20066;-76
2021/07/13 05:09:13;;;;;;;16.45;11.75;;;;;;;23.64;100.00;100376.44;4988296;28;20388;-76
2021/07/13 05:11:38;;;;;;;18.73;12.77;;;;;;;23.82;100.00;100379.28;4989858;28;20133;-76
2021/07/13 05:14:04;;;;;;;17.02;12.07;;;;;;;23.86;100.00;100368.91;4989519;28;20042;-76
2021/07/13 05:16:30;;;;;;;18.10;12.52;;;;;;;24.06;100.00;100378.34;4982816;28;20041;-75
2021/07/13 05:18:56;;;;;;;18.30;12.70;;;;;;;24.16;100.00;100377.16;4973965;28;20114;-75
2021/07/13 05:21:22;;;;;;;16.70;11.80;;;;;;;24.57;100.00;100378.63;4982470;28;20038;-75
2021/07/13 05:23:48;;;;;;;19.20;12.48;;;;;;;25.16;96.89;100373.78;5002825;28;20084;-75
2021/07/13 05:26:13;;;;;;;14.23;11.15;;;;;;;25.33;95.55;100383.25;5000540;28;20042;-75
2021/07/13 05:28:39;;;;;;;13.82;10.25;;;;;;;25.51;94.25;100384.00;4999891;28;20457;-75
2021/07/13 05:31:04;;;;;;;13.43;10.50;;;;;;;26.15;91.23;100381.06;4989516;28;20113;-76
2021/07/13 05:33:30;;;;;;;14.13;10.38;;;;;;;26.58;88.50;100389.56;4986025;28;20026;-77
2021/07/13 05:35:55;;;;;;;16.55;10.13;;;;;;;26.97;86.59;100381.31;4990202;28;20047;-76
2021/07/13 05:38:20;;;;;;;16.55;10.63;;;;;;;27.22;84.98;100372.47;4994931;28;20467;-77
2021/07/13 05:40:46;;;;;;;13.50;9.80;;;;;;;27.51;83.36;100372.50;4990996;28;20042;-77
2021/07/13 05:43:13;;;;;;;10.98;9.13;;;;;;;27.82;82.04;100369.22;4988967;28;20034;-77
2021/07/13 05:45:39;;;;;;;12.80;9.15;;;;;;;28.21;79.55;100371.38;4990388;28;20053;-77
2021/07/13 05:48:04;;;;;;;12.18;9.13;;;;;;;28.65;77.06;100373.25;4990456;28;20033;-77
2021/07/13 05:50:30;;;;;;;11.23;9.02;;;;;;;28.95;76.49;100382.91;4989823;28;20047;-77
2021/07/13 05:52:57;;;;;;;15.07;8.93;;;;;;;28.87;75.99;100376.28;4974546;28;20038;-77
2021/07/13 05:55:23;;;;;;;11.18;9.20;;;;;;;29.04;74.81;100388.31;4984337;28;20042;-76
2021/07/13 05:57:49;;;;;;;12.23;9.63;;;;;;;29.08;75.07;100372.97;4985587;28;20053;-77
2021/07/13 06:00:15;;;;;;;9.65;8.65;;;;;;;29.19;74.61;100373.13;4967772;28;20034;-76
2021/07/13 06:02:42;;;;;;;13.93;9.07;;;;;;;29.38;73.69;100376.34;4969979;28;20042;-77
2021/07/13 06:05:08;;;;;;;13.95;9.13;;;;;;;29.31;72.21;100368.44;4965007;28;20497;-77
2021/07/13 06:07:40;;;;;;;10.15;8.82;;;;;;;29.38;72.71;100368.00;4971897;28;20768;-77
2021/07/13 06:10:06;;;;;;;10.90;8.98;;;;;;;29.56;72.14;100364.88;4976845;28;20081;-77
2021/07/13 06:12:31;;;;;;;9.25;8.15;;;;;;;29.74;71.25;100364.56;4969452;28;20124;-77
2021/07/13 06:14:57;;;;;;;11.02;8.30;;;;;;;29.64;72.04;100371.50;4965191;28;20506;-77
2021/07/13 06:17:22;;;;;;;14.90;8.65;;;;;;;29.77;71.72;100365.59;4973091;28;20045;-77
2021/07/13 06:19:47;;;;;;;10.13;8.73;;;;;;;29.78;71.75;100373.41;4969066;28;20057;-77
2021/07/13 06:22:13;;;;;;;11.02;8.32;;;;;;;29.67;71.46;100384.41;4969573;28;20026;-77
2021/07/13 06:24:38;;;;;;;10.30;8.80;;;;;;;29.65;71.15;100375.81;4960542;28;20452;-77
2021/07/13 06:27:04;;;;;;;11.70;8.00;;;;;;;29.72;71.36;100371.84;4967931;28;20046;-77
2021/07/13 06:29:29;;;;;;;11.88;8.77;;;;;;;29.76;70.12;100375.16;4970466;28;20113;-77
2021/07/13 06:31:54;;;;;;;9.63;8.68;;;;;;;29.66;70.70;100371.78;4967175;28;20093;-77
2021/07/13 06:34:20;;;;;;;10.75;8.80;;;;;;;29.62;70.88;100370.47;4970640;28;20038;-76
2021/07/13 06:36:46;;;;;;;11.68;8.95;;;;;;;29.51;70.56;100370.38;4971819;28;20041;-77
2021/07/13 06:39:12;;;;;;;10.35;8.13;;;;;;;29.52;70.97;100372.66;4971332;28;20118;-77
2021/07/13 06:41:38;;;;;;;10.45;9.30;;;;;;;29.41;70.99;100378.13;4965294;28;20046;-78
2021/07/13 06:44:03;;;;;;;11.73;8.48;;;;;;;29.54;71.35;100381.25;4969997;28;20184;-77
2021/07/13 06:46:31;;;;;;;9.30;8.38;;;;;;;29.55;71.21;100376.47;4959014;28;20085;-77
2021/07/13 06:49:01;;;;;;;10.15;9.05;;;;;;;29.60;71.51;100367.44;4969416;28;20161;-77
2021/07/13 06:51:26;;;;;;;10.65;8.90;;;;;;;29.41;70.96;100375.34;4989566;28;20077;-76
2021/07/13 06:53:51;;;;;;;9.93;8.93;;;;;;;29.47;70.91;100364.28;4968128;28;20541;-76
2021/07/13 06:56:17;;;;;;;10.50;8.82;;;;;;;29.48;72.42;100369.34;4968001;28;20083;-77
2021/07/13 06:58:42;;;;;;;10.82;8.73;;;;;;;29.51;71.07;100373.94;4972989;28;20042;-77
2021/07/13 07:01:07;;;;;;;11.45;8.80;;;;;;;29.43;71.20;100364.50;4968361;28;20487;-77
2021/07/13 07:03:33;;;;;;;9.90;8.93;;;;;;;29.30;72.33;100370.47;4971160;28;20089;-76
2021/07/13 07:05:58;;;;;;;9.27;8.27;;;;;;;29.06;72.86;100363.63;4959529;28;20149;-77
2021/07/13 07:08:24;;;;;;;9.52;8.52;;;;;;;29.13;73.33;100366.75;4973736;28;20146;-77
2021/07/13 07:10:49;;;;;;;12.15;8.57;;;;;;;29.22;71.36;100365.84;4975577;28;20153;-77
2021/07/13 07:13:14;;;;;;;11.18;8.75;;;;;;;29.37;70.91;100366.47;4963728;28;20041;-77
2021/07/13 07:15:40;;;;;;;12.30;8.57;;;;;;;29.48;72.17;100366.56;4966409;28;20712;-76
2021/07/13 07:18:05;;;;;;;12.00;8.77;;;;;;;29.49;72.45;100367.34;4966486;28;20076;-77
2021/07/13 07:20:31;;;;;;;10.10;8.52;;;;;;;29.49;70.82;100365.31;4968942;28;20159;-77
2021/07/13 07:22:58;;;;;;;13.95;8.77;;;;;;;29.48;71.83;100363.03;4971905;28;20096;-76
2021/07/13 07:25:24;;;;;;;10.93;8.65;;;;;;;29.64;71.29;100365.94;4968637;28;20025;-77
2021/07/13 07:27:55;;;;;;;9.07;8.18;;;;;;;29.56;71.73;100364.88;4954666;28;20054;-76
2021/07/13 07:30:22;;;;;;;10.95;8.25;;;;;;;29.62;73.65;100371.25;4949001;28;20053;-77
2021/07/13 07:32:48;;;;;;;9.90;8.38;;;;;;;29.54;73.48;100372.94;4972660;28;20407;-77
2021/07/13 07:35:15;;;;;;;9.77;8.77;;;;;;;29.74;73.61;100372.88;4972652;28;20026;-77
2021/07/13 07:37:41;;;;;;;9.88;8.38;;;;;;;29.77;72.32;100371.16;4951195;28;20041;-77
2021/07/13 07:40:12;;;;;;;11.57;8.35;;;;;;;30.03;72.93;100380.94;4980158;28;20043;-76
2021/07/13 07:42:38;;;;;;;12.32;8.50;;;;;;;30.00;70.83;100372.81;4991133;28;20030;-76
2021/07/13 07:45:05;;;;;;;13.43;8.80;;;;;;;30.08;72.05;100363.50;4989376;28;20041;-74
2021/07/13 07:47:30;;;;;;;10.23;8.10;;;;;;;30.17;72.54;100348.66;4958390;28;20780;-74
2021/07/13 07:49:56;;;;;;;10.05;8.50;;;;;;;30.26;69.99;100352.00;4944325;28;20042;-74
2021/07/13 07:52:21;;;;;;;9.32;8.40;;;;;;;30.31;70.49;100360.91;4949294;28;20384;-74
2021/07/13 07:54:47;;;;;;;13.52;9.02;;;;;;;30.35;70.68;100361.44;4942639;28;20686;-74
2021/07/13 07:57:13;;;;;;;10.82;8.52;;;;;;;30.46;70.51;100365.03;4952029;28;20445;-74
2021/07/13 07:59:38;;;;;;;11.13;9.63;;;;;;;30.39;70.05;100359.91;4953683;28;20042;-74
2021/07/13 08:02:04;;;;;;;12.70;8.75;;;;;;;30.47;70.20;100360.97;4938348;28;20380;-75
2021/07/13 08:04:29;;;;;;;9.85;8.75;;;;;;;30.50;67.78;100353.66;4952871;28;20128;-75
2021/07/13 08:06:55;;;;;;;12.27;9.13;;;;;;;30.67;65.38;100365.59;4956030;28;20034;-74
2021/07/13 08:09:20;;;;;;;10.45;8.52;;;;;;;30.61;65.28;100365.59;4956061;28;20062;-74
2021/07/13 08:11:46;;;;;;;9.40;8.40;;;;;;;30.50;66.75;100362.78;4970393;23;21496;-77
2021/07/13 08:14:11;;;;;;;9.75;7.50;;;;;;;30.39;65.88;100359.19;4958768;28;20050;-77
2021/07/13 08:16:37;;;;;;;9.85;7.88;;;;;;;30.58;65.34;100358.25;4958990;28;20041;-77
2021/07/13 08:19:06;;;;;;;8.80;7.95;;;;;;;30.84;65.08;100358.88;4945045;28;20073;-78
2021/07/13 08:21:32;;;;;;;8.88;7.97;;;;;;;30.80;67.53;100346.41;4962371;28;20073;-80
2021/07/13 08:23:58;;;;;;;8.00;7.07;;;;;;;30.88;64.57;100351.03;4975312;28;20034;-78
2021/07/13 08:26:25;;;;;;;10.93;7.22;;;;;;;31.01;64.21;100345.75;4958044;28;20042;-78
2021/07/13 08:28:50;;;;;;;8.15;7.35;;;;;;;31.08;61.85;100353.63;4976343;28;20118;-78
2021/07/13 08:31:16;;;;;;;8.98;7.78;;;;;;;30.85;63.24;100348.50;4960262;28;20041;-77
2021/07/13 08:33:41;;;;;;;9.80;7.88;;;;;;;30.79;64.47;100348.47;4978258;28;20049;-78
2021/07/13 08:36:08;;;;;;;8.50;7.70;;;;;;;30.87;63.27;100345.97;4959881;28;20041;-77
2021/07/13 08:38:33;;;;;;;8.07;7.28;;;;;;;31.02;62.02;100349.31;4973338;28;20068;-76
2021/07/13 08:40:59;;;;;;;8.75;7.55;;;;;;;30.99;60.63;100347.53;4965993;28;20042;-76
2021/07/13 08:43:26;;;;;;;9.18;7.07;;;;;;;30.93;62.03;100349.53;4956371;28;20992;-77
2021/07/13 08:45:55;;;;;;;9.95;7.30;;;;;;;30.95;61.57;100349.81;4975277;28;20042;-76
2021/07/13 08:48:24;;;;;;;10.43;7.50;;;;;;;31.33;62.04;100353.91;4975636;28;20851;-76
2021/07/13 08:50:57;;;;;;;7.88;6.78;;;;;;;31.49;60.48;100350.41;4977137;28;20046;-77
2021/07/13 08:53:22;;;;;;;8.38;7.57;;;;;;;31.33;59.20;100337.94;4976174;28;20109;-77
2021/07/13 08:55:48;;;;;;;10.23;6.65;;;;;;;31.44;60.68;100340.75;4973083;28;20050;-77
2021/07/13 08:58:16;;;;;;;7.55;6.85;;;;;;;31.47;60.43;100333.44;4993329;28;20033;-77
2021/07/13 09:00:42;;;;;;;7.70;7.00;;;;;;;31.52;58.94;100330.63;4999881;28;20125;-77
2021/07/13 09:03:18;;;;;;;10.68;6.75;;;;;;;31.58;56.73;100339.00;5017654;28;20105;-77
2021/07/13 09:05:52;;;;;;;7.60;6.43;;;;;;;31.20;57.63;100339.72;4984489;28;20117;-77
2021/07/13 09:08:23;;;;;;;7.32;6.35;;;;;;;31.30;58.12;100338.22;4999522;28;20045;-76
2021/07/13 09:11:10;;;;;;;8.45;6.35;;;;;;;31.40;58.93;100337.47;5003989;28;20387;-77
2021/07/13 09:13:42;;;;;;;10.10;6.57;;;;;;;31.21;58.90;100335.66;4996030;28;20034;-77
2021/07/13 09:16:11;;;;;;;7.95;7.15;;;;;;;31.30;59.35;100335.44;5001096;28;20030;-77
2021/07/13 09:18:39;;;;;;;8.35;7.45;;;;;;;31.35;58.37;100334.66;5002556;28;20498;-77
2021/07/13 09:21:11;;;;;;;7.07;6.38;;;;;;;31.33;57.96;100345.53;4988798;28;20038;-76
2021/07/13 09:24:02;;;;;;;8.52;6.40;;;;;;;31.54;57.11;100339.25;5003657;28;20376;-77
2021/07/13 09:26:42;;;;;;;6.60;6.00;;;;;;;31.57;54.80;100327.06;4994865;28;20030;-77
2021/07/13 09:29:25;;;;;;;6.18;5.55;;;;;;;31.90;56.20;100334.66;4994474;28;21549;-77
2021/07/13 09:31:50;;;;;;;5.50;5.00;;;;;;;32.07;54.46;100329.06;5006605;28;20076;-77
2021/07/13 09:34:19;;;;;;;6.90;6.20;;;;;;;31.93;54.52;100334.44;5019867;28;20449;-76
2021/07/13 09:36:52;;;;;;;6.55;5.85;;;;;;;32.22;53.65;100332.31;4997335;28;20125;-77
2021/07/13 09:39:22;;;;;;;6.45;5.57;;;;;;;32.11;52.15;100326.78;5020924;28;20030;-77
2021/07/13 09:41:54;;;;;;;8.57;5.60;;;;;;;31.95;52.79;100325.53;5004698;28;20492;-78
2021/07/13 09:44:24;;;;;;;6.78;5.63;;;;;;;32.04;52.77;100322.47;5002542;28;20059;-77
2021/07/13 09:46:50;;;;;;;6.82;6.13;;;;;;;32.08;54.00;100322.19;5011021;28;20091;-77
2021/07/13 09:49:24;;;;;;;6.88;6.18;;;;;;;32.37;51.37;100325.16;5010157;28;20542;-76
2021/07/13 09:52:01;;;;;;;7.30;6.22;;;;;;;32.09;51.12;100321.72;5004257;28;20035;-77
2021/07/13 09:54:38;;;;;;;7.70;6.30;;;;;;;32.06;51.95;100321.97;5004488;28;20045;-78
2021/07/13 09:57:14;;;;;;;8.38;5.90;;;;;;;31.84;54.33;100312.34;5007462;28;20036;-76
2021/07/13 09:59:43;;;;;;;7.63;6.28;;;;;;;32.12;53.99;100319.91;5008329;28;20045;-77
2021/07/13 10:02:10;;;;;;;6.93;6.22;;;;;;;32.31;55.07;100318.84;5020443;28;20034;-76
2021/07/13 10:04:38;;;;;;;6.82;6.15;;;;;;;32.60;52.99;100315.44;5007819;28;20021;-77
2021/07/13 10:07:25;;;;;;;7.93;6.57;;;;;;;32.72;52.10;100319.69;5003590;28;20706;-79
2021/07/13 10:09:52;;;;;;;7.07;6.07;;;;;;;32.60;51.81;100321.03;4952425;28;20206;-77
2021/07/13 10:12:22;;;;;;;7.10;6.40;;;;;;;32.60;52.55;100320.25;4951262;29;20047;-78
2021/07/13 10:14:49;;;;;;;6.63;6.03;;;;;;;32.21;53.05;100322.44;4934094;29;20047;-78
2021/07/13 10:17:16;;;;;;;7.30;6.05;;;;;;;32.04;52.90;100318.94;4942922;29;20039;-77
2021/07/13 10:19:51;;;;;;;9.27;6.55;;;;;;;31.88;54.39;100321.22;4949826;29;20571;-78
2021/07/13 10:22:19;;;;;;;6.35;5.75;;;;;;;32.27;54.88;100315.56;4945963;29;20043;-78
2021/07/13 10:24:48;;;;;;;6.20;5.60;;;;;;;32.50;54.46;100313.47;4948979;28;20023;-77
2021/07/13 10:27:35;;;;;;;7.97;5.88;;;;;;;32.41;51.71;100319.31;4951755;29;20058;-76
2021/07/13 10:30:27;;;;;;;8.70;5.75;;;;;;;32.31;51.92;100318.09;4946759;28;20047;-78
2021/07/13 10:32:53;;;;;;;6.32;5.72;;;;;;;32.23;52.89;100317.84;4953463;28;20531;-78
2021/07/13 10:35:26;;;;;;;5.97;5.47;;;;;;;32.47;53.78;100323.63;4939345;28;20035;-77
2021/07/13 10:37:55;;;;;;;8.70;5.60;;;;;;;32.70;52.16;100316.66;4935968;28;20090;-77
2021/07/13 10:40:26;;;;;;;6.50;5.43;;;;;;;32.65;54.53;100317.47;4937774;28;20083;-77
2021/07/13 10:42:56;;;;;;;7.35;5.60;;;;;;;32.82;53.54;100323.69;4942974;29;20039;-76
2021/07/13 10:45:31;;;;;;;5.93;5.30;;;;;;;33.13;50.86;100311.34;4933623;29;20043;-76
2021/07/13 10:48:05;;;;;;;9.07;5.18;;;;;;;33.08;51.00;100317.72;4991011;28;20034;-78
2021/07/13 10:50:30;;;;;;;5.90;5.30;;;;;;;33.09;51.64;100318.47;5015203;28;20052;-79
2021/07/13 10:53:00;;;;;;;5.45;4.95;;;;;;;33.11;51.66;100319.47;5014539;28;20037;-79
2021/07/13 10:55:32;;;;;;;6.55;5.03;;;;;;;33.12;49.62;100317.44;5020434;28;20502;-76
2021/07/13 10:58:10;;;;;;;5.15;4.35;;;;;;;33.39;51.09;100317.22;5004352;28;20031;-78
2021/07/13 11:00:53;;;;;;;5.97;4.75;;;;;;;33.42;50.46;100315.41;5006888;28;20041;-78
2021/07/13 11:03:31;;;;;;;4.78;4.38;;;;;;;33.50;50.52;100322.00;5007798;28;20097;-78
2021/07/13 11:05:58;;;;;;;5.28;4.53;;;;;;;33.02;48.40;100305.84;5000786;28;20455;-78
2021/07/13 11:08:42;;;;;;;5.43;4.47;;;;;;;33.03;51.42;100315.72;5021964;28;20041;-79
2021/07/13 11:11:32;;;;;;;4.82;4.38;;;;;;;33.11;49.71;100313.88;5008291;28;20038;-78
2021/07/13 11:14:02;;;;;;;5.50;5.00;;;;;;;32.83;48.89;100324.44;5003552;28;20559;-78
2021/07/13 11:16:38;;;;;;;6.68;4.47;;;;;;;32.80;50.26;100308.72;5019645;28;20034;-78
2021/07/13 11:19:12;;;;;;;5.88;4.57;;;;;;;32.94;49.04;100307.63;4998803;28;20444;-77
2021/07/13 11:21:50;;;;;;;4.97;4.47;;;;;;;33.25;51.12;100321.16;5016102;28;20065;-76